Time;durP1;ratioP1;P1;durP2;ratioP2;P2;SDS_P1;SDS_P2;PMS_P1;PMS_P2;Temp;Humidity;BMP_temperature;BMP_pressure;BME280_temperature;BME280_humidity;BME280_pressure;Samples;Min_cycle;Max_cycle;Signal;HPM_P1;HPM_P2
2023/08/30 00:01:26;;;;;;;0.10;0.10;;;;;;;-145.06;100.00;40221.94;10378987;28;20107;-65
2023/08/30 00:06:26;;;;;;;0.10;0.10;;;;;;;-145.06;100.00;40219.94;10395980;28;20291;-65
2023/08/30 00:11:28;;;;;;;0.10;0.10;;;;;;;-145.06;100.00;40181.59;10391439;28;20387;-65
2023/08/30 00:16:29;;;;;;;0.10;0.10;;;;;;;-145.06;100.00;40205.81;10378937;28;20379;-65
2023/08/30 00:21:29;;;;;;;0.10;0.10;;;;;;;-145.06;100.00;40205.81;10383885;28;20470;-65
2023/08/30 00:26:29;;;;;;;0.00;0.00;;;;;;;-145.06;100.00;40240.13;10391848;28;20464;-64
2023/08/30 00:31:30;;;;;;;0.10;0.10;;;;;;;-145.06;100.00;40211.84;10380775;28;20546;-64
2023/08/30 00:36:30;;;;;;;0.10;0.10;;;;;;;-145.06;100.00;40262.31;10384050;28;20111;-63
2023/08/30 00:41:30;;;;;;;0.10;0.10;;;;;;;-145.06;100.00;40254.25;10372946;28;21180;-62
2023/08/30 00:46:32;;;;;;;0.10;0.10;;;;;;;-145.06;100.00;40256.25;10390713;28;20402;-63
2023/08/30 00:51:33;;;;;;;0.10;0.10;;;;;;;-145.06;100.00;40226.00;10376049;28;20095;-62
2023/08/30 00:56:34;;;;;;;0.10;0.10;;;;;;;-145.06;100.00;40236.06;10369861;28;20067;-64
2023/08/30 01:01:34;;;;;;;0.10;0.10;;;;;;;-145.06;100.00;40258.28;10383431;28;20033;-64
2023/08/30 01:06:35;;;;;;;0.10;0.10;;;;;;;-145.06;100.00;40238.09;10378754;28;20030;-64
2023/08/30 01:11:43;;;;;;;0.10;0.10;;;;;;;-145.06;100.00;40215.91;10387432;28;20034;-64
2023/08/30 01:16:44;;;;;;;0.10;0.10;;;;;;;-145.06;100.00;40260.28;10382348;28;20034;-64
2023/08/30 01:21:58;;;;;;;0.10;0.10;;;;;;;-145.06;100.00;40252.22;10378412;28;20460;-62
2023/08/30 01:27:08;;;;;;;;;;;;;;;-145.06;100.00;40242.13;10368612;28;20045;-61
2023/08/30 01:32:10;;;;;;;0.10;0.10;;;;;;;-145.06;100.00;40244.16;10374594;28;19957;-62
2023/08/30 01:37:13;;;;;;;0.10;0.10;;;;;;;-145.06;100.00;40272.41;10374303;28;20041;-64
2023/08/30 01:42:15;;;;;;;0.00;0.00;;;;;;;-145.06;100.00;40230.03;10369109;28;20093;-64
2023/08/30 01:47:16;;;;;;;0.10;0.10;;;;;;;-145.06;100.00;40217.91;10378087;28;20030;-64
2023/08/30 01:52:17;;;;;;;0.10;0.10;;;;;;;-145.06;100.00;40213.88;10381625;28;20065;-63
2023/08/30 01:57:18;;;;;;;0.00;0.00;;;;;;;-145.06;100.00;40223.97;10383169;28;20071;-66
2023/08/30 02:02:18;;;;;;;0.10;0.10;;;;;;;-145.06;100.00;40201.78;10393368;28;20490;-65
2023/08/30 02:07:28;;;;;;;0.10;0.10;;;;;;;-145.06;100.00;40195.72;10387178;28;20283;-65
2023/08/30 02:12:35;;;;;;;0.10;0.10;;;;;;;-145.06;100.00;40228.00;10380614;28;20038;-65
2023/08/30 02:17:37;;;;;;;0.10;0.10;;;;;;;-145.06;100.00;40209.84;10388102;28;20038;-63
2023/08/30 02:22:37;;;;;;;0.00;0.00;;;;;;;-145.06;100.00;40193.69;10385054;28;20037;-63
2023/08/30 02:27:38;;;;;;;0.10;0.10;;;;;;;-145.06;100.00;40139.22;10390653;28;20053;-64
2023/08/30 02:32:38;;;;;;;0.10;0.10;;;;;;;-145.06;100.00;40157.38;10383721;28;20049;-65
2023/08/30 02:37:40;;;;;;;0.10;0.10;;;;;;;-145.06;100.00;40163.41;10384935;28;20261;-64
2023/08/30 02:42:40;;;;;;;0.10;0.10;;;;;;;-145.06;100.00;40139.22;10385408;28;20030;-65
2023/08/30 02:47:40;;;;;;;0.10;0.10;;;;;;;-145.06;100.00;40119.03;10389755;28;20029;-65
2023/08/30 02:52:40;;;;;;;0.10;0.10;;;;;;;-145.06;100.00;40121.03;10382586;28;20479;-66
2023/08/30 02:57:41;;;;;;;0.10;0.10;;;;;;;-145.06;100.00;40123.06;10378797;28;20387;-65
2023/08/30 03:02:41;;;;;;;0.10;0.10;;;;;;;-145.06;100.00;40100.88;10382695;28;20030;-66
2023/08/30 03:07:41;;;;;;;0.10;0.10;;;;;;;-145.06;100.00;40076.66;10381552;28;20029;-66
2023/08/30 03:12:42;;;;;;;0.10;0.10;;;;;;;-145.06;100.00;40127.09;10384095;28;20121;-64
2023/08/30 03:17:42;;;;;;;0.10;0.10;;;;;;;-145.06;100.00;40098.84;10387395;28;20030;-64
2023/08/30 03:22:42;;;;;;;0.10;0.10;;;;;;;-145.06;100.00;40074.63;10384172;28;20029;-63
2023/08/30 03:27:44;;;;;;;0.10;0.10;;;;;;;-145.06;100.00;40117.00;10377586;28;20057;-63
2023/08/30 03:32:44;;;;;;;0.10;0.10;;;;;;;-145.06;100.00;40098.84;10385400;28;20038;-66
2023/08/30 03:37:44;;;;;;;0.10;0.10;;;;;;;-145.06;100.00;40088.75;10381536;28;20029;-65
2023/08/30 03:42:45;;;;;;;0.10;0.10;;;;;;;-145.06;100.00;40068.56;10387093;28;20022;-65
2023/08/30 03:47:45;;;;;;;0.10;0.10;;;;;;;-145.06;100.00;40102.88;10392376;28;20080;-66
2023/08/30 03:52:45;;;;;;;0.10;0.10;;;;;;;-145.06;100.00;40129.13;10374523;28;20030;-65
2023/08/30 03:57:46;;;;;;;0.10;0.10;;;;;;;-145.06;100.00;40084.72;10379284;28;20036;-66
2023/08/30 04:02:47;;;;;;;0.10;0.10;;;;;;;-145.06;100.00;40076.66;10379550;28;20026;-66
2023/08/30 04:07:47;;;;;;;0.10;0.10;;;;;;;-145.06;100.00;40098.84;10373860;28;20049;-65
2023/08/30 04:12:47;;;;;;;0.05;0.05;;;;;;;-145.06;100.00;40096.81;10372785;28;20585;-65
2023/08/30 04:17:47;;;;;;;0.10;0.10;;;;;;;-145.06;100.00;40078.66;10397288;28;20022;-65
2023/08/30 04:22:48;;;;;;;0.10;0.10;;;;;;;-145.06;100.00;40092.78;10375749;28;20022;-65
2023/08/30 04:27:48;;;;;;;0.10;0.10;;;;;;;-145.06;100.00;40066.56;10374468;28;20037;-65
2023/08/30 04:32:48;;;;;;;0.10;0.10;;;;;;;-145.06;100.00;40094.81;10371409;28;20476;-65
2023/08/30 04:37:49;;;;;;;0.10;0.10;;;;;;;-145.06;100.00;39983.81;10371738;28;20026;-66
2023/08/30 04:42:49;;;;;;;0.10;0.10;;;;;;;-145.06;100.00;39941.44;10375548;28;20029;-66
2023/08/30 04:47:49;;;;;;;0.10;0.10;;;;;;;-145.06;100.00;40006.00;10385034;28;20025;-66
2023/08/30 04:52:49;;;;;;;0.10;0.10;;;;;;;-145.06;100.00;40058.47;10369712;28;20034;-66
2023/08/30 04:57:50;;;;;;;0.10;0.10;;;;;;;-145.06;100.00;40036.28;10377477;28;20037;-66
2023/08/30 05:02:50;;;;;;;0.10;0.10;;;;;;;-145.06;100.00;40034.25;10386360;28;20033;-66
2023/08/30 05:07:50;;;;;;;0.10;0.10;;;;;;;-145.06;100.00;40052.44;10369461;28;20084;-66
2023/08/30 05:12:51;;;;;;;0.10;0.10;;;;;;;-145.06;100.00;40014.09;10368844;28;20038;-66
2023/08/30 05:17:52;;;;;;;0.10;0.10;;;;;;;-145.06;100.00;40006.00;10383523;28;20025;-66
2023/08/30 05:22:52;;;;;;;0.17;0.17;;;;;;;-145.06;100.00;40024.19;10368145;28;20022;-66
2023/08/30 05:27:52;;;;;;;0.10;0.10;;;;;;;-145.06;100.00;39961.63;10431319;22;20102;-66
2023/08/30 05:32:53;;;;;;;0.10;0.10;;;;;;;-145.06;100.00;39929.31;10469208;28;20025;-66
2023/08/30 05:37:53;;;;;;;0.10;0.10;;;;;;;-145.06;100.00;39905.13;10483172;28;20029;-66
2023/08/30 05:42:54;;;;;;;0.10;0.10;;;;;;;-145.06;100.00;39917.22;10456020;28;20419;-66
2023/08/30 05:47:55;;;;;;;0.10;0.10;;;;;;;-145.06;100.00;39925.28;10477559;28;20061;-65
2023/08/30 05:52:55;;;;;;;0.03;0.03;;;;;;;-145.06;100.00;39895.03;10462068;28;20025;-66
2023/08/30 05:57:55;;;;;;;0.10;0.10;;;;;;;-145.06;100.00;39870.81;10476143;28;20021;-66
2023/08/30 06:02:56;;;;;;;0.10;0.10;;;;;;;-145.06;100.00;39830.44;10483590;28;20086;-67
2023/08/30 06:07:57;;;;;;;0.10;0.10;;;;;;;-145.06;100.00;39880.91;10478179;28;20040;-66
2023/08/30 06:12:57;;;;;;;0.10;0.10;;;;;;;-145.06;100.00;39862.72;10462096;28;20040;-66
2023/08/30 06:17:58;;;;;;;0.10;0.10;;;;;;;-145.06;100.00;39832.47;10459964;28;20366;-65
2023/08/30 06:22:59;;;;;;;0.10;0.10;;;;;;;-145.06;100.00;39834.47;10462582;28;20095;-66
2023/08/30 06:28:01;;;;;;;0.10;0.10;;;;;;;-145.06;100.00;39816.31;10462944;28;20075;-67
2023/08/30 06:33:01;;;;;;;0.10;0.10;;;;;;;-145.06;100.00;39757.81;10457923;28;20025;-67
2023/08/30 06:38:03;;;;;;;0.10;0.10;;;;;;;-145.06;100.00;39777.97;10478796;28;20039;-66
2023/08/30 06:43:03;;;;;;;0.10;0.10;;;;;;;-145.06;100.00;39777.97;10486409;28;20021;-66
2023/08/30 06:48:05;;;;;;;0.10;0.10;;;;;;;-145.06;100.00;39784.03;10486868;28;20036;-66
2023/08/30 06:53:05;;;;;;;0.08;0.08;;;;;;;-145.06;100.00;39721.47;10474950;28;20794;-66
2023/08/30 06:58:05;;;;;;;0.10;0.10;;;;;;;-145.06;100.00;39620.59;10462465;28;20113;-66
2023/08/30 07:03:06;;;;;;;0.00;0.00;;;;;;;-145.06;100.00;39602.44;10495102;28;20243;-67
2023/08/30 07:08:06;;;;;;;0.10;0.10;;;;;;;-145.06;100.00;39507.59;10475630;28;20037;-66
2023/08/30 07:13:10;;;;;;;0.00;0.00;;;;;;;-145.06;98.73;39414.78;10467309;28;20033;-66
2023/08/30 07:18:10;;;;;;;0.00;0.00;;;;;;;-145.06;96.45;39295.72;10450944;28;20522;-66
2023/08/30 07:23:10;;;;;;;0.00;0.00;;;;;;;-145.06;94.58;39334.06;10469706;28;20027;-66
2023/08/30 07:28:11;;;;;;;0.00;0.00;;;;;;;-145.06;92.89;39315.91;10456386;28;20118;-66
2023/08/30 07:33:11;;;;;;;0.00;0.00;;;;;;;-145.06;88.80;39192.81;10458158;28;20037;-67
2023/08/30 07:38:11;;;;;;;0.00;0.00;;;;;;;-145.06;86.34;39102.03;10453092;28;20485;-66
2023/08/30 07:43:12;;;;;;;0.10;0.10;;;;;;;-145.06;82.60;39011.25;10471773;28;20076;-65
2023/08/30 07:48:12;;;;;;;0.05;0.05;;;;;;;-145.06;84.23;39023.34;10469199;28;20083;-67
2023/08/30 07:53:12;;;;;;;0.10;0.10;;;;;;;-145.06;81.45;39007.22;10475555;28;20060;-66
2023/08/30 07:58:13;;;;;;;0.10;0.10;;;;;;;-145.06;83.00;38938.63;10470855;28;20033;-67
2023/08/30 08:03:13;;;;;;;0.00;0.00;;;;;;;-145.06;83.85;38985.00;10462448;28;20028;-67
2023/08/30 08:08:14;;;;;;;0.00;0.00;;;;;;;-145.06;84.13;39015.28;10476685;28;20040;-66
2023/08/30 08:13:14;;;;;;;0.10;0.10;;;;;;;-145.06;84.57;39093.97;10463913;28;20331;-67
2023/08/30 08:18:15;;;;;;;0.00;0.00;;;;;;;-145.06;87.26;39158.53;10453460;28;20078;-66
2023/08/30 08:23:16;;;;;;;0.00;0.00;;;;;;;-145.06;91.35;39223.09;10455473;28;20271;-66
2023/08/30 08:28:17;;;;;;;0.00;0.00;;;;;;;-145.06;91.55;39313.88;10463329;28;20128;-66
2023/08/30 08:33:18;;;;;;;0.00;0.00;;;;;;;-145.06;89.35;39180.72;10451075;28;20033;-67
2023/08/30 08:38:18;;;;;;;0.10;0.10;;;;;;;-145.06;88.52;39184.75;10456582;28;20469;-66
2023/08/30 08:43:19;;;;;;;0.00;0.00;;;;;;;-145.06;89.23;39138.34;10453982;28;20032;-67
2023/08/30 08:48:19;;;;;;;0.00;0.00;;;;;;;-145.06;86.23;39299.75;10469437;28;20029;-67
2023/08/30 08:53:21;;;;;;;0.00;0.00;;;;;;;-145.06;92.89;39358.28;10480038;28;20398;-67
2023/08/30 08:58:21;;;;;;;0.00;0.00;;;;;;;-145.06;90.05;39293.72;10470899;28;20029;-66
2023/08/30 09:03:22;;;;;;;0.00;0.00;;;;;;;-145.06;87.38;39166.59;10454488;28;20036;-66
2023/08/30 09:08:23;;;;;;;0.00;0.00;;;;;;;-145.06;84.30;39194.84;10456062;28;20485;-67
2023/08/30 09:13:23;;;;;;;0.10;0.10;;;;;;;-145.06;84.78;39122.22;10462748;28;20114;-67
2023/08/30 09:18:27;;;;;;;0.00;0.00;;;;;;;-145.06;86.45;39073.78;10462634;28;20028;-66
2023/08/30 09:23:27;;;;;;;0.00;0.00;;;;;;;-145.06;78.21;39122.22;10476977;28;20035;-66
2023/08/30 09:28:28;;;;;;;0.00;0.00;;;;;;;-145.06;72.99;38983.00;10477249;28;20501;-66
2023/08/30 09:33:33;;;;;;;0.00;0.00;;;;;;;-145.06;70.19;38847.81;10477215;28;20021;-67
2023/08/30 09:38:33;;;;;;;0.00;0.00;;;;;;;-145.06;68.64;38777.22;10466888;28;20036;-66
2023/08/30 09:43:34;;;;;;;0.00;0.00;;;;;;;-145.06;68.51;38785.28;10463729;28;20032;-66
2023/08/30 09:48:37;;;;;;;0.00;0.00;;;;;;;-145.06;66.36;38744.94;10468388;28;20094;-66
2023/08/30 09:53:43;;;;;;;0.10;0.10;;;;;;;-145.06;65.46;38825.63;10473949;28;20072;-66
2023/08/30 09:58:44;;;;;;;0.00;0.00;;;;;;;-145.06;62.32;38789.31;10452955;28;20028;-67
2023/08/30 10:03:45;;;;;;;0.00;0.00;;;;;;;-145.06;61.19;38821.59;10478290;28;20029;-66
2023/08/30 10:08:48;;;;;;;0.00;0.00;;;;;;;-145.06;65.02;38797.38;10476843;28;20025;-67
2023/08/30 10:13:51;;;;;;;0.00;0.00;;;;;;;-145.06;63.44;38839.75;10471698;28;20068;-66
2023/08/30 10:19:02;;;;;;;0.10;0.10;;;;;;;-145.06;63.34;38827.66;10492643;28;20029;-66
2023/08/30 10:24:06;;;;;;;0.00;0.00;;;;;;;-145.06;62.55;38837.75;10485494;28;20071;-67
2023/08/30 10:29:07;;;;;;;0.00;0.00;;;;;;;-145.06;63.68;38813.53;10475732;28;20042;-66
2023/08/30 10:34:17;;;;;;;0.00;0.00;;;;;;;-145.06;63.38;38769.16;10461358;28;20040;-66
2023/08/30 10:39:17;;;;;;;0.00;0.00;;;;;;;-145.06;60.92;38748.97;10494988;28;20074;-66
2023/08/30 10:44:21;;;;;;;0.00;0.00;;;;;;;-145.06;62.16;38724.75;10468845;28;20098;-66
2023/08/30 10:49:22;;;;;;;0.00;0.00;;;;;;;-145.06;58.37;38726.78;10466218;28;20024;-66
2023/08/30 10:54:23;;;;;;;0.00;0.00;;;;;;;-145.06;57.06;38686.44;10478183;28;20041;-66
2023/08/30 10:59:24;;;;;;;0.00;0.00;;;;;;;-145.06;60.76;38672.31;10451329;28;20466;-66
2023/08/30 11:04:25;;;;;;;0.10;0.10;;;;;;;-145.06;61.47;38648.09;10452900;28;20057;-66
2023/08/30 11:09:25;;;;;;;0.00;0.00;;;;;;;-145.06;60.96;38648.09;10470912;28;20490;-67
2023/08/30 11:14:25;;;;;;;0.00;0.00;;;;;;;-145.06;60.80;38759.06;10462224;28;20486;-67
2023/08/30 11:19:30;;;;;;;0.00;0.00;;;;;;;-145.06;62.06;38801.44;10464176;28;20029;-66
2023/08/30 11:24:30;;;;;;;0.00;0.00;;;;;;;-145.06;62.95;38884.13;10462285;28;20067;-66
2023/08/30 11:34:33;;;;;;;0.10;0.10;;;;;;;-145.06;62.50;38940.63;10467126;28;20068;-65
2023/08/30 11:39:33;;;;;;;0.10;0.10;;;;;;;-145.06;62.66;38983.00;10463155;28;20076;-66
2023/08/30 11:44:35;;;;;;;0.00;0.00;;;;;;;-145.06;61.70;38910.38;10474987;28;20035;-66
2023/08/30 11:49:38;;;;;;;0.00;0.00;;;;;;;-145.06;59.86;38924.50;10490503;28;20119;-65
2023/08/30 11:54:39;;;;;;;0.00;0.00;;;;;;;-145.06;63.66;38964.84;10490984;28;20032;-67
2023/08/30 11:59:39;;;;;;;0.00;0.00;;;;;;;-145.06;64.40;38938.63;10492108;28;20028;-66
2023/08/30 12:04:45;;;;;;;0.00;0.00;;;;;;;-145.06;63.00;38906.34;10489811;28;20036;-66
2023/08/30 12:09:45;;;;;;;0.00;0.00;;;;;;;-145.06;62.97;38863.97;10491763;28;20074;-66
2023/08/30 12:14:54;;;;;;;0.00;0.00;;;;;;;-145.06;61.56;38803.44;10488170;28;20082;-66
2023/08/30 12:19:56;;;;;;;0.00;0.00;;;;;;;-145.06;62.43;38833.69;10471813;28;20081;-67
2023/08/30 12:24:59;;;;;;;0.10;0.10;;;;;;;-145.06;62.19;38839.75;10491142;28;20032;-67
2023/08/30 12:29:59;;;;;;;0.00;0.00;;;;;;;-145.06;61.75;38807.47;10489620;28;20504;-65
2023/08/30 12:35:00;;;;;;;0.00;0.00;;;;;;;-145.06;59.23;38890.19;10488369;28;20037;-65
2023/08/30 12:40:00;;;;;;;0.00;0.00;;;;;;;-145.06;62.79;38884.13;10486402;28;20090;-65
2023/08/30 12:45:01;;;;;;;0.00;0.00;;;;;;;-145.06;60.99;38948.69;10486170;28;20552;-66
2023/08/30 12:50:01;;;;;;;0.00;0.00;;;;;;;-145.06;58.65;39007.22;10490479;28;20393;-66
2023/08/30 12:55:01;;;;;;;0.00;0.00;;;;;;;-145.06;63.90;39005.19;10489811;28;20037;-65
2023/08/30 13:00:02;;;;;;;0.00;0.00;;;;;;;-145.06;66.01;39075.81;10489960;28;20025;-66
2023/08/30 13:05:03;;;;;;;0.00;0.00;;;;;;;-145.06;66.85;39104.06;10489557;28;20492;-66
2023/08/30 13:10:04;;;;;;;0.00;0.00;;;;;;;-145.06;68.26;39142.38;10489858;28;20102;-66
2023/08/30 13:15:04;;;;;;;0.00;0.00;;;;;;;-145.06;66.21;39186.78;10488030;28;20670;-65
2023/08/30 13:20:05;;;;;;;0.00;0.00;;;;;;;-145.06;67.67;39200.91;10489190;28;20044;-67
2023/08/30 13:25:07;;;;;;;0.00;0.00;;;;;;;-145.06;68.14;39217.03;10471429;28;20078;-67
2023/08/30 13:30:07;;;;;;;0.00;0.00;;;;;;;-145.06;74.04;39192.81;10489423;28;20040;-66
2023/08/30 13:35:08;;;;;;;0.00;0.00;;;;;;;-145.06;74.59;39297.75;10489675;28;20032;-66
2023/08/30 13:40:09;;;;;;;0.00;0.00;;;;;;;-145.06;75.13;39249.31;10487035;28;20435;-65
2023/08/30 13:45:09;;;;;;;0.10;0.10;;;;;;;-145.06;75.69;39303.78;10496582;28;20090;-66
2023/08/30 13:50:10;;;;;;;0.00;0.00;;;;;;;-145.06;75.84;39253.34;10479365;28;20070;-66
2023/08/30 13:55:10;;;;;;;0.00;0.00;;;;;;;-145.06;74.72;39259.41;10497550;28;20058;-64
2023/08/30 14:00:12;;;;;;;0.10;0.10;;;;;;;-145.06;76.32;39287.66;10494566;28;20033;-65
2023/08/30 14:05:13;;;;;;;0.10;0.10;;;;;;;-145.06;75.01;39305.81;10497234;28;20036;-65
2023/08/30 14:10:18;;;;;;;0.00;0.00;;;;;;;-145.06;77.51;39346.16;10494646;28;20029;-66
2023/08/30 14:15:18;;;;;;;0.05;0.05;;;;;;;-145.06;80.22;39352.22;10478717;28;20706;-66
2023/08/30 14:20:18;;;;;;;0.00;0.00;;;;;;;-145.06;81.33;39356.25;10495744;28;20025;-66
2023/08/30 14:25:19;;;;;;;0.00;0.00;;;;;;;-145.06;83.66;39346.16;10496510;28;20028;-66
2023/08/30 14:30:19;;;;;;;0.00;0.00;;;;;;;-145.06;83.17;39364.31;10495610;28;20066;-66
2023/08/30 14:35:24;;;;;;;0.00;0.00;;;;;;;-145.06;85.47;39334.06;10496506;28;20024;-66
2023/08/30 14:40:24;;;;;;;0.00;0.00;;;;;;;-145.06;83.15;39366.34;10493326;28;20306;-66
2023/08/30 14:45:24;;;;;;;0.00;0.00;;;;;;;-145.06;84.38;39443.03;10490290;28;20052;-66
2023/08/30 14:50:24;;;;;;;0.00;0.00;;;;;;;-145.06;84.42;39479.34;10490965;28;20031;-66
2023/08/30 14:55:25;;;;;;;0.10;0.10;;;;;;;-145.06;86.59;39443.03;10491509;28;20032;-67
2023/08/30 15:00:25;;;;;;;0.00;0.00;;;;;;;-145.06;88.21;39461.19;10492398;28;20454;-64
2023/08/30 15:05:26;;;;;;;0.00;0.00;;;;;;;-145.06;91.64;39475.31;10494290;28;20481;-64
2023/08/30 15:10:26;;;;;;;0.00;0.00;;;;;;;-145.06;96.23;39487.41;10495037;28;20277;-64
2023/08/30 15:15:26;;;;;;;0.00;0.00;;;;;;;-145.06;96.75;39465.22;10490578;28;20126;-64
2023/08/30 15:20:27;;;;;;;0.03;0.03;;;;;;;-145.06;96.81;39473.28;10491952;28;20029;-65
2023/08/30 15:25:27;;;;;;;0.10;0.10;;;;;;;-145.06;99.74;39547.94;10494622;28;20036;-65
2023/08/30 15:30:27;;;;;;;0.00;0.00;;;;;;;-145.06;100.00;39580.22;10470719;28;20037;-66
2023/08/30 15:35:28;;;;;;;0.00;0.00;;;;;;;-145.06;100.00;39586.28;10493272;28;20180;-66
2023/08/30 15:40:29;;;;;;;0.05;0.05;;;;;;;-145.06;100.00;39602.44;10491880;28;20037;-66
2023/08/30 15:45:29;;;;;;;0.00;0.00;;;;;;;-145.06;100.00;39640.75;10493456;28;20040;-66
2023/08/30 15:50:30;;;;;;;0.00;0.00;;;;;;;-145.06;100.00;39673.06;10491580;28;20115;-65
2023/08/30 15:55:30;;;;;;;0.00;0.00;;;;;;;-145.06;100.00;39679.09;10493465;28;20081;-64
2023/08/30 16:00:32;;;;;;;0.10;0.10;;;;;;;-145.06;100.00;39687.19;10493116;28;20029;-66
2023/08/30 16:05:32;;;;;;;0.00;0.00;;;;;;;-145.06;100.00;39685.16;10493218;28;20033;-67
2023/08/30 16:10:33;;;;;;;0.00;0.00;;;;;;;-145.06;100.00;39723.50;10491377;28;20089;-68
2023/08/30 16:15:33;;;;;;;0.10;0.10;;;;;;;-145.06;100.00;39675.06;10480441;28;20032;-68
2023/08/30 16:20:33;;;;;;;0.10;0.10;;;;;;;-145.06;100.00;39721.47;10488923;28;20271;-67
2023/08/30 16:25:33;;;;;;;0.10;0.10;;;;;;;-145.06;100.00;39701.31;10491660;28;20025;-67
2023/08/30 16:30:34;;;;;;;0.05;0.05;;;;;;;-145.06;100.00;39751.75;10489528;28;20043;-67
2023/08/30 16:35:34;;;;;;;0.10;0.10;;;;;;;-145.06;100.00;39755.78;10488315;28;20037;-68
2023/08/30 16:40:34;;;;;;;0.00;0.00;;;;;;;-145.06;100.00;39773.94;10490256;28;20025;-68
2023/08/30 16:45:35;;;;;;;0.10;0.10;;;;;;;-145.06;100.00;39773.94;10489156;28;20111;-68
2023/08/30 16:50:35;;;;;;;0.00;0.00;;;;;;;-145.06;100.00;39796.16;10490800;28;20034;-68
2023/08/30 16:55:36;;;;;;;0.00;0.00;;;;;;;-145.06;100.00;39788.06;10491255;28;20029;-68
2023/08/30 17:00:37;;;;;;;0.00;0.00;;;;;;;-145.06;100.00;39840.53;10484910;28;20031;-68
2023/08/30 17:05:39;;;;;;;0.10;0.10;;;;;;;-145.06;100.00;39848.59;10490720;28;20496;-67
2023/08/30 17:10:40;;;;;;;0.10;0.10;;;;;;;-145.06;100.00;39848.59;10489833;28;20025;-69
2023/08/30 17:15:40;;;;;;;0.08;0.08;;;;;;;-145.06;100.00;39882.91;10489076;28;20091;-69
2023/08/30 17:20:40;;;;;;;0.10;0.10;;;;;;;-145.06;100.00;39876.84;10489986;28;20024;-67
2023/08/30 17:25:41;;;;;;;0.00;0.00;;;;;;;-145.06;100.00;39886.94;10489233;28;20389;-67
2023/08/30 17:30:41;;;;;;;0.10;0.10;;;;;;;-145.06;100.00;39921.25;10486996;28;20433;-66
2023/08/30 17:35:41;;;;;;;0.10;0.10;;;;;;;-145.06;100.00;39913.19;10498988;22;20057;-70
2023/08/30 17:40:42;;;;;;;0.00;0.00;;;;;;;-145.06;100.00;39832.47;10549512;28;20028;-70
2023/08/30 17:45:45;;;;;;;0.10;0.10;;;;;;;-145.06;100.00;39937.41;10573149;28;20085;-70
2023/08/30 17:50:45;;;;;;;0.10;0.10;;;;;;;-145.06;100.00;39911.16;10572632;28;20475;-70
2023/08/30 17:55:56;;;;;;;0.10;0.10;;;;;;;-145.06;100.00;39903.09;10573016;28;20034;-70
2023/08/30 18:00:59;;;;;;;0.10;0.10;;;;;;;-145.06;100.00;39927.31;10570848;28;20572;-70
2023/08/30 18:06:12;;;;;;;0.20;0.20;;;;;;;-145.06;100.00;39903.09;10572840;28;20059;-70
2023/08/30 18:11:13;;;;;;;0.10;0.10;;;;;;;-145.06;100.00;39937.41;10572130;28;20059;-70
2023/08/30 18:16:15;;;;;;;0.10;0.10;;;;;;;-145.06;100.00;39911.16;10567437;28;20441;-70
2023/08/30 18:21:16;;;;;;;0.10;0.10;;;;;;;-145.06;100.00;39915.19;10568937;28;20532;-70
2023/08/30 18:26:16;;;;;;;0.00;0.00;;;;;;;-145.06;100.00;39975.75;10572633;28;20030;-70
2023/08/30 18:31:18;;;;;;;0.10;0.10;;;;;;;-145.06;100.00;39951.53;10577116;28;20125;-70
2023/08/30 18:36:19;;;;;;;0.10;0.10;;;;;;;-145.06;100.00;39947.50;10579383;28;20023;-70
2023/08/30 18:41:19;;;;;;;0.00;0.00;;;;;;;-145.06;100.00;39941.44;10579877;28;20042;-70
2023/08/30 18:46:20;;;;;;;0.10;0.10;;;;;;;-145.06;100.00;39939.41;10574396;28;20969;-70
2023/08/30 18:51:22;;;;;;;0.10;0.10;;;;;;;-145.06;100.00;39917.22;10576636;28;20036;-68
2023/08/30 18:56:22;;;;;;;0.10;0.10;;;;;;;-145.06;100.00;39971.72;10574930;28;20024;-68
2023/08/30 19:01:23;;;;;;;0.10;0.10;;;;;;;-145.06;100.00;39951.53;10574090;28;20028;-67
2023/08/30 19:06:23;;;;;;;0.10;0.10;;;;;;;-145.06;100.00;39963.63;10579125;28;20034;-70
2023/08/30 19:11:24;;;;;;;0.10;0.10;;;;;;;-145.06;100.00;39969.69;10578160;28;20467;-68
2023/08/30 19:16:24;;;;;;;0.00;0.00;;;;;;;-145.06;100.00;39961.63;10553425;28;20050;-67
2023/08/30 19:21:24;;;;;;;0.10;0.10;;;;;;;-145.06;100.00;39979.78;10577900;28;20035;-68
2023/08/30 19:26:28;;;;;;;0.10;0.10;;;;;;;-145.06;100.00;39969.69;10577998;28;20043;-68
2023/08/30 19:31:33;;;;;;;0.10;0.10;;;;;;;-145.06;100.00;39967.66;10577684;28;20024;-67
2023/08/30 19:36:33;;;;;;;0.10;0.10;;;;;;;-145.06;100.00;39987.84;10571961;28;20040;-71
2023/08/30 19:41:34;;;;;;;0.10;0.10;;;;;;;-145.06;100.00;39987.84;10576189;28;20073;-70
2023/08/30 19:46:34;;;;;;;0.10;0.10;;;;;;;-145.06;100.00;39979.78;10573623;28;20039;-68
2023/08/30 19:51:34;;;;;;;0.10;0.10;;;;;;;-145.06;100.00;39971.72;10576848;28;20072;-68
2023/08/30 19:56:35;;;;;;;0.10;0.10;;;;;;;-145.06;100.00;39947.50;10577035;28;20176;-68
2023/08/30 20:01:36;;;;;;;0.10;0.10;;;;;;;-145.06;100.00;39979.78;10575501;28;20520;-68
2023/08/30 20:06:37;;;;;;;0.10;0.10;;;;;;;-145.06;100.00;40001.97;10575468;28;20028;-68
2023/08/30 20:11:37;;;;;;;0.10;0.10;;;;;;;-145.06;100.00;39983.81;10574447;28;20023;-68
2023/08/30 20:16:38;;;;;;;0.00;0.00;;;;;;;-145.06;100.00;40008.03;10557899;28;20034;-68
2023/08/30 20:21:38;;;;;;;0.10;0.10;;;;;;;-145.06;100.00;40012.06;10575616;28;20023;-68
2023/08/30 20:26:39;;;;;;;0.10;0.10;;;;;;;-145.06;100.00;39997.94;10575693;28;20024;-68
2023/08/30 20:31:39;;;;;;;0.10;0.10;;;;;;;-145.06;100.00;39973.72;10575208;28;20016;-68
2023/08/30 20:36:40;;;;;;;0.10;0.10;;;;;;;-145.06;100.00;39963.63;10575221;28;20461;-68
2023/08/30 20:41:40;;;;;;;0.00;0.00;;;;;;;-145.06;100.00;39991.88;10573953;28;20347;-68
2023/08/30 20:46:40;;;;;;;0.10;0.10;;;;;;;-145.06;100.00;39993.91;10571536;28;20272;-68
2023/08/30 20:51:41;;;;;;;0.00;0.00;;;;;;;-145.06;100.00;39999.97;10571345;28;20024;-68
2023/08/30 20:56:41;;;;;;;0.10;0.10;;;;;;;-145.06;100.00;40008.03;10573824;28;20036;-68
2023/08/30 21:01:41;;;;;;;0.10;0.10;;;;;;;-145.06;100.00;39959.59;10570813;28;20027;-68
2023/08/30 21:06:42;;;;;;;0.10;0.10;;;;;;;-145.06;100.00;39991.88;10574305;28;20107;-68
2023/08/30 21:11:42;;;;;;;0.10;0.10;;;;;;;-145.06;100.00;40010.03;10573803;28;20023;-68
2023/08/30 21:16:42;;;;;;;0.00;0.00;;;;;;;-145.06;100.00;39967.66;10571563;28;20032;-68
2023/08/30 21:21:42;;;;;;;0.10;0.10;;;;;;;-145.06;100.00;39981.78;10573755;28;20460;-68
2023/08/30 21:26:43;;;;;;;0.10;0.10;;;;;;;-145.06;100.00;39995.91;10574002;28;20039;-68
2023/08/30 21:31:43;;;;;;;0.10;0.10;;;;;;;-145.06;100.00;40008.03;10570022;28;20495;-68
2023/08/30 21:36:43;;;;;;;0.10;0.10;;;;;;;-145.06;100.00;39969.69;10573749;28;20031;-68
2023/08/30 21:41:44;;;;;;;0.10;0.10;;;;;;;-145.06;100.00;39949.50;10573494;28;20019;-68
2023/08/30 21:46:44;;;;;;;0.10;0.10;;;;;;;-145.06;100.00;39991.88;10572862;28;20035;-68
2023/08/30 21:51:45;;;;;;;0.10;0.10;;;;;;;-145.06;100.00;39981.78;10572262;28;20825;-68
2023/08/30 21:56:45;;;;;;;0.10;0.10;;;;;;;-145.06;100.00;39945.47;10572745;28;20031;-68
2023/08/30 22:01:45;;;;;;;0.10;0.10;;;;;;;-145.06;100.00;39963.63;10571581;28;20020;-68
2023/08/30 22:06:46;;;;;;;0.10;0.10;;;;;;;-145.06;100.00;39955.56;10581632;28;20479;-68
2023/08/30 22:11:46;;;;;;;0.10;0.10;;;;;;;-145.06;100.00;39957.59;10581894;28;20035;-68
2023/08/30 22:16:47;;;;;;;0.10;0.10;;;;;;;-145.06;100.00;39993.91;10573711;28;20088;-68
2023/08/30 22:21:48;;;;;;;0.10;0.10;;;;;;;-145.06;100.00;39945.47;10581453;28;20054;-68
2023/08/30 22:26:48;;;;;;;0.00;0.00;;;;;;;-145.06;100.00;39979.78;10580991;28;20496;-68
2023/08/30 22:31:50;;;;;;;0.10;0.10;;;;;;;-145.06;100.00;40014.09;10580110;28;20601;-68
2023/08/30 22:36:50;;;;;;;0.10;0.10;;;;;;;-145.06;100.00;39993.91;10580393;28;20050;-68
2023/08/30 22:41:50;;;;;;;0.10;0.10;;;;;;;-145.06;100.00;40010.03;10579612;28;20041;-68